createdAt,value
2022-10-30T00:02:19.532Z,5.65
2022-10-30T00:04:45.998Z,5.63
2022-10-30T00:07:12.514Z,5.05
2022-10-30T00:09:38.912Z,5.15
2022-10-30T00:12:05.486Z,5.22
2022-10-30T00:14:31.973Z,5.03
2022-10-30T00:16:58.376Z,5.30
2022-10-30T00:19:24.895Z,6.13
2022-10-30T00:21:51.322Z,5.38
2022-10-30T00:24:17.752Z,5.47
2022-10-30T00:26:44.241Z,6.32
2022-10-30T00:29:10.680Z,5.63
2022-10-30T00:31:37.167Z,5.50
2022-10-30T00:34:03.660Z,5.47
2022-10-30T00:36:30.132Z,5.22
2022-10-30T00:38:56.586Z,5.25
2022-10-30T00:41:24.111Z,5.68
2022-10-30T00:43:51.026Z,5.72
2022-10-30T00:46:32.778Z,5.70
2022-10-30T00:49:17.597Z,5.78
2022-10-30T00:51:49.824Z,5.20
2022-10-30T00:54:17.827Z,5.10
2022-10-30T00:56:44.914Z,5.25
2022-10-30T00:59:13.639Z,5.60
2022-10-30T01:01:41.420Z,5.15
2022-10-30T01:04:08.269Z,5.38
2022-10-30T01:06:37.139Z,5.15
2022-10-30T01:09:04.097Z,5.40
2022-10-30T01:11:31.116Z,5.82
2022-10-30T01:14:01.197Z,5.22
2022-10-30T01:16:46.374Z,5.68
2022-10-30T01:19:17.850Z,5.57
2022-10-30T01:21:50.329Z,5.68
2022-10-30T01:24:26.667Z,5.72
2022-10-30T01:27:05.355Z,5.45
2022-10-30T01:29:44.913Z,5.40
2022-10-30T01:32:14.601Z,6.00
2022-10-30T01:34:49.471Z,5.15
2022-10-30T01:37:25.554Z,4.80
2022-10-30T01:39:52.002Z,5.47
2022-10-30T01:42:37.389Z,5.93
2022-10-30T01:45:05.000Z,5.35
2022-10-30T01:47:39.077Z,5.13
2022-10-30T01:50:32.675Z,5.63
2022-10-30T01:53:13.249Z,5.70
2022-10-30T01:55:55.755Z,5.72
2022-10-30T01:58:29.603Z,6.18
2022-10-30T02:00:58.450Z,5.85
2022-10-30T02:03:26.151Z,5.63
2022-10-30T02:05:53.273Z,5.72
2022-10-30T02:08:20.655Z,5.80
2022-10-30T02:10:49.319Z,6.28
2022-10-30T02:13:15.793Z,6.55
2022-10-30T02:15:43.781Z,5.80
2022-10-30T02:18:11.068Z,6.60
2022-10-30T02:20:39.411Z,5.85
2022-10-30T02:23:06.974Z,5.35
2022-10-30T02:25:34.653Z,5.85
2022-10-30T02:28:01.133Z,5.55
2022-10-30T02:30:30.195Z,5.50
2022-10-30T02:32:57.037Z,5.63
2022-10-30T02:35:24.087Z,5.63
2022-10-30T02:37:52.013Z,6.50
2022-10-30T02:40:18.505Z,6.32
2022-10-30T02:42:44.947Z,6.30
2022-10-30T02:45:11.774Z,5.75
2022-10-30T02:47:38.326Z,6.28
2022-10-30T02:50:05.393Z,6.22
2022-10-30T02:52:35.092Z,6.25
2022-10-30T02:55:01.538Z,6.45
2022-10-30T02:57:28.226Z,7.25
2022-10-30T02:59:54.977Z,6.35
2022-10-30T03:02:21.658Z,6.25
2022-10-30T03:04:49.319Z,6.72
2022-10-30T03:07:15.796Z,5.97
2022-10-30T03:09:42.206Z,6.15
2022-10-30T03:12:08.705Z,5.95
2022-10-30T03:14:35.225Z,5.78
2022-10-30T03:17:03.828Z,6.30
2022-10-30T03:19:32.004Z,6.70
2022-10-30T03:21:58.516Z,5.90
2022-10-30T03:24:24.914Z,6.38
2022-10-30T03:26:51.988Z,7.25
2022-10-30T03:29:18.446Z,7.72
2022-10-30T03:31:44.961Z,7.50
2022-10-30T03:34:18.616Z,6.88
2022-10-30T03:36:45.010Z,6.65
2022-10-30T03:39:12.628Z,7.53
2022-10-30T03:41:43.448Z,7.22
2022-10-30T03:44:10.081Z,6.82
2022-10-30T03:46:36.664Z,6.53
2022-10-30T03:49:15.923Z,6.43
2022-10-30T03:51:42.377Z,7.03
2022-10-30T03:54:08.778Z,6.65
2022-10-30T03:56:35.208Z,6.65
2022-10-30T03:59:03.453Z,6.30
2022-10-30T04:01:30.133Z,7.70
2022-10-30T04:03:57.179Z,6.60
2022-10-30T04:06:24.988Z,7.03
2022-10-30T04:08:51.422Z,6.00
2022-10-30T04:11:17.960Z,6.90
2022-10-30T04:13:44.455Z,6.55
2022-10-30T04:16:14.769Z,7.07
2022-10-30T04:18:42.140Z,7.35
2022-10-30T04:21:08.612Z,6.80
2022-10-30T04:23:36.842Z,7.05
2022-10-30T04:26:03.992Z,7.80
2022-10-30T04:28:30.865Z,6.97
2022-10-30T04:30:57.348Z,6.95
2022-10-30T04:33:25.593Z,7.43
2022-10-30T04:35:52.009Z,7.45
2022-10-30T04:38:20.415Z,7.03
2022-10-30T04:40:47.999Z,7.45
2022-10-30T04:43:15.286Z,7.35
2022-10-30T04:45:43.608Z,8.40
2022-10-30T04:48:12.789Z,7.57
2022-10-30T04:50:39.567Z,7.60
2022-10-30T04:53:07.056Z,8.35
2022-10-30T04:55:33.598Z,8.55
2022-10-30T04:58:02.869Z,7.75
2022-10-30T05:00:32.391Z,8.30
2022-10-30T05:03:07.664Z,9.25
2022-10-30T05:05:35.484Z,9.45
2022-10-30T05:08:02.429Z,9.40
2022-10-30T05:10:29.220Z,9.60
2022-10-30T05:12:55.792Z,8.48
2022-10-30T05:15:22.315Z,9.27
2022-10-30T05:17:56.117Z,8.70
2022-10-30T05:20:22.875Z,8.02
2022-10-30T05:22:56.773Z,8.05
2022-10-30T05:25:23.757Z,7.63
2022-10-30T05:27:50.245Z,7.55
2022-10-30T05:30:18.189Z,8.00
2022-10-30T05:32:44.725Z,8.20
2022-10-30T05:35:11.829Z,7.32
2022-10-30T05:37:38.498Z,7.18
2022-10-30T05:40:05.235Z,7.90
2022-10-30T05:42:32.103Z,8.73
2022-10-30T05:45:02.657Z,7.93
2022-10-30T05:47:33.368Z,7.43
2022-10-30T05:49:59.811Z,7.28
2022-10-30T05:52:26.937Z,7.22
2022-10-30T05:54:53.442Z,7.75
2022-10-30T05:57:29.428Z,7.97
2022-10-30T05:59:56.145Z,8.02
2022-10-30T06:02:22.752Z,7.57
2022-10-30T06:04:49.412Z,8.27
2022-10-30T06:07:17.133Z,7.32
2022-10-30T06:09:43.795Z,7.90
2022-10-30T06:12:10.217Z,7.63
2022-10-30T06:14:49.959Z,7.53
2022-10-30T06:17:16.657Z,7.65
2022-10-30T06:19:55.080Z,8.02
2022-10-30T06:22:42.458Z,7.15
2022-10-30T06:25:15.523Z,7.57
2022-10-30T06:27:52.397Z,7.72
2022-10-30T06:30:20.433Z,6.93
2022-10-30T06:32:47.407Z,7.18
2022-10-30T06:35:14.134Z,7.70
2022-10-30T06:37:48.150Z,7.70
2022-10-30T06:40:16.128Z,6.80
2022-10-30T06:42:58.382Z,6.97
2022-10-30T06:45:37.430Z,7.63
2022-10-30T06:48:04.052Z,7.65
2022-10-30T06:50:35.559Z,8.40
2022-10-30T06:53:02.019Z,7.85
2022-10-30T06:55:28.620Z,7.95
2022-10-30T06:58:23.541Z,8.35
2022-10-30T07:01:07.490Z,8.18
2022-10-30T07:03:55.424Z,8.68
2022-10-30T07:06:22.767Z,8.40
2022-10-30T07:08:49.281Z,8.05
2022-10-30T07:11:16.732Z,8.77
2022-10-30T07:14:06.318Z,8.27
2022-10-30T07:16:54.404Z,8.77
2022-10-30T07:19:21.018Z,8.75
2022-10-30T07:21:47.814Z,8.10
2022-10-30T07:24:14.533Z,8.55
2022-10-30T07:26:49.889Z,9.18
2022-10-30T07:29:32.646Z,8.27
2022-10-30T07:32:19.470Z,8.35
2022-10-30T07:35:09.767Z,8.80
2022-10-30T07:37:55.657Z,7.70
2022-10-30T07:40:34.350Z,8.80
2022-10-30T07:43:18.572Z,9.38
2022-10-30T07:46:07.943Z,8.10
2022-10-30T07:48:57.618Z,7.93
2022-10-30T07:51:48.597Z,8.38
2022-10-30T07:54:15.867Z,8.43
2022-10-30T07:56:42.810Z,8.30
2022-10-30T07:59:17.948Z,8.45
2022-10-30T08:02:23.032Z,7.40
2022-10-30T08:05:12.593Z,7.72
2022-10-30T08:08:02.441Z,8.10
2022-10-30T08:10:29.286Z,8.38
2022-10-30T08:12:56.676Z,7.75
2022-10-30T08:15:23.882Z,7.63
2022-10-30T08:17:50.693Z,7.65
2022-10-30T08:20:21.863Z,8.55
2022-10-30T08:22:53.288Z,7.43
2022-10-30T08:25:25.551Z,7.20
2022-10-30T08:27:53.436Z,7.45
2022-10-30T08:30:19.883Z,7.80
2022-10-30T08:32:46.646Z,9.13
2022-10-30T08:35:32.540Z,8.75
2022-10-30T08:38:00.970Z,8.75
2022-10-30T08:40:28.095Z,8.75
2022-10-30T08:43:03.272Z,7.97
2022-10-30T08:45:31.617Z,7.57
2022-10-30T08:48:05.167Z,7.03
2022-10-30T08:50:36.632Z,6.82
2022-10-30T08:53:04.467Z,6.85
2022-10-30T08:55:32.680Z,6.72
2022-10-30T08:58:02.371Z,7.28
2022-10-30T09:00:29.196Z,6.40
2022-10-30T09:03:10.920Z,6.90
2022-10-30T09:06:01.176Z,6.35
2022-10-30T09:08:33.390Z,6.13
2022-10-30T09:11:18.309Z,6.00
2022-10-30T09:13:44.951Z,7.53
2022-10-30T09:16:11.994Z,6.20
2022-10-30T09:18:38.712Z,6.28
2022-10-30T09:21:05.636Z,6.28
2022-10-30T09:23:39.932Z,6.22
2022-10-30T09:26:24.916Z,6.03
2022-10-30T09:28:57.744Z,5.80
2022-10-30T09:31:39.531Z,7.47
2022-10-30T09:34:08.854Z,6.25
2022-10-30T09:36:46.293Z,6.43
2022-10-30T09:39:13.055Z,5.90
2022-10-30T09:41:59.049Z,6.22
2022-10-30T09:44:28.703Z,5.90
2022-10-30T09:47:07.177Z,6.00
2022-10-30T09:49:47.047Z,6.50
2022-10-30T09:52:20.847Z,6.78
2022-10-30T09:54:51.599Z,5.85
2022-10-30T09:57:30.342Z,6.22
2022-10-30T10:00:10.504Z,5.78
2022-10-30T10:02:48.801Z,6.05
2022-10-30T10:05:23.494Z,6.35
2022-10-30T10:08:15.857Z,6.43
2022-10-30T10:11:10.755Z,6.05
2022-10-30T10:13:38.408Z,6.00
2022-10-30T10:16:10.899Z,5.72
2022-10-30T10:19:03.644Z,5.45
2022-10-30T10:21:32.951Z,5.45
2022-10-30T10:24:01.650Z,5.50
2022-10-30T10:26:29.864Z,5.22
2022-10-30T10:29:01.554Z,6.03
2022-10-30T10:31:48.445Z,5.40
2022-10-30T10:34:20.947Z,5.65
2022-10-30T10:37:06.498Z,5.35
2022-10-30T10:39:51.435Z,5.50
2022-10-30T10:42:34.453Z,5.50
2022-10-30T10:45:16.630Z,5.45
2022-10-30T10:47:58.092Z,5.43
2022-10-30T10:50:25.933Z,5.05
2022-10-30T10:53:03.473Z,5.63
2022-10-30T10:55:36.184Z,5.72
2022-10-30T10:58:19.160Z,5.18
2022-10-30T11:00:45.880Z,4.78
2022-10-30T11:03:20.377Z,5.13
2022-10-30T11:05:50.555Z,5.15
2022-10-30T11:08:19.136Z,5.22
2022-10-30T11:10:49.198Z,5.22
2022-10-30T11:13:15.952Z,5.07
2022-10-30T11:15:42.419Z,4.50
2022-10-30T11:18:09.675Z,4.47
2022-10-30T11:20:38.094Z,4.80
2022-10-30T11:23:25.777Z,4.95
2022-10-30T11:25:52.490Z,5.32
2022-10-30T11:28:31.954Z,4.72
2022-10-30T11:31:16.785Z,5.50
2022-10-30T11:33:43.252Z,5.43
2022-10-30T11:36:15.464Z,4.97
2022-10-30T11:38:42.444Z,5.15
2022-10-30T11:41:12.477Z,4.68
2022-10-30T11:43:39.992Z,5.22
2022-10-30T11:46:09.738Z,4.85
2022-10-30T11:48:43.134Z,4.68
2022-10-30T11:51:10.640Z,4.85
2022-10-30T11:53:40.176Z,5.32
2022-10-30T11:56:20.030Z,5.22
2022-10-30T11:58:48.850Z,4.85
2022-10-30T12:01:15.284Z,4.93
2022-10-30T12:03:42.020Z,4.82
2022-10-30T12:06:17.154Z,5.20
2022-10-30T12:08:58.627Z,4.65
2022-10-30T12:11:32.550Z,4.97
2022-10-30T12:13:59.268Z,5.53
2022-10-30T12:16:26.388Z,4.90
2022-10-30T12:18:58.526Z,4.95
2022-10-30T12:21:28.003Z,5.15
2022-10-30T12:24:01.309Z,5.32
2022-10-30T12:26:28.423Z,5.90
2022-10-30T12:29:00.039Z,5.38
2022-10-30T12:31:32.659Z,4.43
2022-10-30T12:34:17.850Z,5.97
2022-10-30T12:36:50.574Z,5.45
2022-10-30T12:39:23.180Z,5.05
2022-10-30T12:42:11.449Z,5.13
2022-10-30T12:44:41.143Z,4.47
2022-10-30T12:47:07.558Z,4.95
2022-10-30T12:49:34.012Z,5.00
2022-10-30T12:52:09.753Z,5.40
2022-10-30T12:54:42.628Z,4.55
2022-10-30T12:57:12.839Z,5.35
2022-10-30T12:59:59.011Z,4.97
2022-10-30T13:02:29.118Z,4.97
2022-10-30T13:04:59.729Z,5.28
2022-10-30T13:07:29.694Z,5.95
2022-10-30T13:10:03.238Z,5.25
2022-10-30T13:12:35.315Z,5.40
2022-10-30T13:15:10.299Z,6.07
2022-10-30T13:17:36.775Z,6.53
2022-10-30T13:20:05.669Z,4.32
2022-10-30T13:22:40.360Z,5.65
2022-10-30T13:25:22.104Z,5.70
2022-10-30T13:27:54.176Z,5.82
2022-10-30T13:30:21.522Z,5.10
2022-10-30T13:32:57.749Z,5.38
2022-10-30T13:35:33.497Z,5.15
2022-10-30T13:38:03.209Z,5.15
2022-10-30T13:40:41.577Z,4.38
2022-10-30T13:43:27.014Z,4.20
2022-10-30T13:45:59.642Z,4.28
2022-10-30T13:48:44.686Z,4.35
2022-10-30T13:51:29.992Z,4.60
2022-10-30T13:54:03.230Z,5.15
2022-10-30T13:56:30.262Z,5.30
2022-10-30T13:59:16.291Z,4.60
2022-10-30T14:01:57.626Z,4.30
2022-10-30T14:04:34.358Z,4.97
2022-10-30T14:07:19.452Z,4.78
2022-10-30T14:09:46.148Z,4.15
2022-10-30T14:12:32.759Z,4.20
2022-10-30T14:15:03.941Z,4.75
2022-10-30T14:17:31.786Z,4.05
2022-10-30T14:20:13.576Z,4.90
2022-10-30T14:22:41.080Z,4.15
2022-10-30T14:25:16.997Z,4.20
2022-10-30T14:27:43.510Z,4.47
2022-10-30T14:30:19.556Z,5.28
2022-10-30T14:32:50.086Z,4.10
2022-10-30T14:35:31.354Z,4.45
2022-10-30T14:37:58.361Z,4.40
2022-10-30T14:40:43.601Z,4.85
2022-10-30T14:43:14.903Z,4.32
2022-10-30T14:45:44.750Z,4.47
2022-10-30T14:48:17.386Z,4.18
2022-10-30T14:50:56.822Z,4.95
2022-10-30T14:53:41.842Z,4.50
2022-10-30T14:56:20.271Z,4.15
2022-10-30T14:59:06.699Z,4.97
2022-10-30T15:01:45.177Z,5.68
2022-10-30T15:04:17.168Z,4.10
2022-10-30T15:06:51.397Z,3.72
2022-10-30T15:09:24.067Z,4.03
2022-10-30T15:12:05.649Z,4.20
2022-10-30T15:14:53.442Z,4.18
2022-10-30T15:17:26.371Z,5.05
2022-10-30T15:19:52.895Z,3.65
2022-10-30T15:22:21.068Z,3.70
2022-10-30T15:24:48.360Z,4.22
2022-10-30T15:27:19.284Z,4.53
2022-10-30T15:30:04.375Z,4.80
2022-10-30T15:32:30.876Z,10.55
2022-10-30T15:35:02.804Z,12.02
2022-10-30T15:37:29.626Z,7.40
2022-10-30T15:40:14.114Z,13.10
2022-10-30T15:42:40.783Z,8.90
2022-10-30T15:45:11.850Z,7.95
2022-10-30T15:47:45.622Z,6.32
2022-10-30T15:50:12.347Z,7.88
2022-10-30T15:52:42.273Z,8.32
2022-10-30T15:55:11.968Z,6.47
2022-10-30T15:58:02.266Z,5.32
2022-10-30T16:00:34.729Z,5.20
2022-10-30T16:03:01.604Z,4.80
2022-10-30T16:05:28.465Z,4.97
2022-10-30T16:07:55.809Z,4.20
2022-10-30T16:10:22.678Z,4.63
2022-10-30T16:12:49.205Z,4.88
2022-10-30T16:15:22.530Z,4.00
2022-10-30T16:17:53.057Z,4.78
2022-10-30T16:20:22.504Z,4.57
2022-10-30T16:22:49.100Z,4.78
2022-10-30T16:25:16.251Z,5.10
2022-10-30T16:27:43.441Z,5.10
2022-10-30T16:30:12.894Z,4.88
2022-10-30T16:32:40.261Z,4.63
2022-10-30T16:35:07.336Z,5.05
2022-10-30T16:37:33.769Z,5.28
2022-10-30T16:40:02.926Z,4.65
2022-10-30T16:42:29.437Z,5.45
2022-10-30T16:45:15.818Z,5.03
2022-10-30T16:47:44.362Z,5.28
2022-10-30T16:50:14.831Z,4.93
2022-10-30T16:52:41.506Z,4.80
2022-10-30T16:55:09.799Z,4.82
2022-10-30T16:57:37.329Z,4.68
2022-10-30T17:00:04.532Z,5.05
2022-10-30T17:02:35.753Z,5.25
2022-10-30T17:05:12.516Z,5.05
2022-10-30T17:07:39.016Z,5.43
2022-10-30T17:10:25.493Z,5.25
2022-10-30T17:12:51.988Z,6.30
2022-10-30T17:15:20.951Z,5.78
2022-10-30T17:18:07.358Z,6.10
2022-10-30T17:20:33.910Z,6.65
2022-10-30T17:23:05.549Z,6.80
2022-10-30T17:25:36.197Z,7.28
2022-10-30T17:28:03.074Z,9.60
2022-10-30T17:30:38.815Z,11.13
2022-10-30T17:33:23.809Z,8.35
2022-10-30T17:35:50.610Z,7.90
2022-10-30T17:38:17.122Z,7.75
2022-10-30T17:40:43.671Z,7.05
2022-10-30T17:43:11.937Z,6.88
2022-10-30T17:45:38.400Z,6.90
2022-10-30T17:48:11.019Z,6.70
2022-10-30T17:50:37.461Z,7.78
2022-10-30T17:53:03.958Z,7.60
2022-10-30T17:55:31.591Z,7.20
2022-10-30T17:57:58.020Z,7.50
2022-10-30T18:00:24.497Z,8.27
2022-10-30T18:02:50.962Z,6.72
2022-10-30T18:05:18.815Z,7.45
2022-10-30T18:07:47.672Z,7.75
2022-10-30T18:10:14.434Z,7.53
2022-10-30T18:12:41.446Z,6.93
2022-10-30T18:15:34.393Z,7.15
2022-10-30T18:18:01.383Z,7.25
2022-10-30T18:20:28.200Z,7.10
2022-10-30T18:22:55.615Z,7.75
2022-10-30T18:25:27.307Z,6.72
2022-10-30T18:27:54.061Z,7.50
2022-10-30T18:30:20.968Z,7.75
2022-10-30T18:32:47.853Z,6.80
2022-10-30T18:35:33.036Z,8.02
2022-10-30T18:37:59.889Z,8.95
2022-10-30T18:40:26.437Z,8.63
2022-10-30T18:42:53.240Z,8.98
2022-10-30T18:45:32.781Z,8.27
2022-10-30T18:48:03.129Z,7.90
2022-10-30T18:50:30.467Z,8.68
2022-10-30T18:52:57.677Z,7.45
2022-10-30T18:55:25.317Z,7.85
2022-10-30T18:57:52.913Z,8.00
2022-10-30T19:00:20.347Z,7.97
2022-10-30T19:02:47.151Z,7.78
2022-10-30T19:05:24.918Z,7.80
2022-10-30T19:07:51.493Z,7.35
2022-10-30T19:10:17.942Z,8.20
2022-10-30T19:13:04.160Z,7.97
2022-10-30T19:15:35.947Z,8.10
2022-10-30T19:18:03.000Z,8.00
2022-10-30T19:20:50.515Z,7.75
2022-10-30T19:23:23.642Z,8.02
2022-10-30T19:25:50.704Z,8.02
2022-10-30T19:28:18.135Z,8.95
2022-10-30T19:30:50.077Z,9.15
2022-10-30T19:33:20.478Z,9.40
2022-10-30T19:35:56.450Z,9.05
2022-10-30T19:38:23.154Z,8.60
2022-10-30T19:40:49.682Z,9.35
2022-10-30T19:43:16.144Z,9.75
2022-10-30T19:45:42.563Z,9.68
2022-10-30T19:48:24.902Z,8.70
2022-10-30T19:51:00.998Z,9.25
2022-10-30T19:53:27.463Z,9.38
2022-10-30T19:55:56.782Z,9.73
2022-10-30T19:58:25.944Z,10.32
2022-10-30T20:00:54.254Z,9.98
2022-10-30T20:03:21.235Z,9.98
2022-10-30T20:05:50.380Z,10.27
2022-10-30T20:08:18.162Z,9.77
2022-10-30T20:10:49.406Z,9.77
2022-10-30T20:13:16.024Z,10.30
2022-10-30T20:15:42.510Z,8.93
2022-10-30T20:18:19.454Z,10.18
2022-10-30T20:20:50.438Z,8.85
2022-10-30T20:23:17.385Z,8.40
2022-10-30T20:25:44.847Z,8.05
2022-10-30T20:28:31.546Z,8.60
2022-10-30T20:30:58.082Z,9.10
2022-10-30T20:33:26.013Z,9.00
2022-10-30T20:35:54.613Z,9.63
2022-10-30T20:38:22.478Z,9.50
2022-10-30T20:40:49.017Z,9.23
2022-10-30T20:43:17.340Z,9.32
2022-10-30T20:45:43.946Z,8.93
2022-10-30T20:48:10.723Z,8.60
2022-10-30T20:50:37.242Z,9.18
2022-10-30T20:53:03.966Z,12.75
2022-10-30T20:55:33.691Z,11.63
2022-10-30T20:58:01.166Z,12.43
2022-10-30T21:00:28.388Z,10.73
2022-10-30T21:02:54.942Z,10.55
2022-10-30T21:05:42.625Z,10.30
2022-10-30T21:08:11.630Z,10.45
2022-10-30T21:10:38.663Z,10.50
2022-10-30T21:13:08.955Z,10.57
2022-10-30T21:15:40.965Z,10.00
2022-10-30T21:18:07.584Z,9.93
2022-10-30T21:20:34.121Z,10.40
2022-10-30T21:23:03.250Z,9.77
2022-10-30T21:25:32.701Z,10.55
2022-10-30T21:27:59.666Z,9.57
2022-10-30T21:30:28.371Z,10.07
2022-10-30T21:32:55.352Z,9.77
2022-10-30T21:35:21.946Z,10.73
2022-10-30T21:37:48.664Z,10.38
2022-10-30T21:40:15.276Z,10.15
2022-10-30T21:42:41.844Z,10.30
2022-10-30T21:45:08.999Z,9.57
2022-10-30T21:47:35.586Z,9.75
2022-10-30T21:50:06.050Z,9.80
2022-10-30T21:52:34.855Z,9.90
2022-10-30T21:55:01.465Z,10.95
2022-10-30T21:57:28.770Z,8.85
2022-10-30T21:59:57.606Z,9.80
2022-10-30T22:02:26.905Z,9.30
2022-10-30T22:04:55.893Z,9.93
2022-10-30T22:07:22.479Z,9.82
2022-10-30T22:09:49.693Z,9.98
2022-10-30T22:12:16.373Z,9.10
2022-10-30T22:14:42.998Z,9.68
2022-10-30T22:17:09.555Z,9.40
2022-10-30T22:19:37.293Z,8.57
2022-10-30T22:22:03.872Z,8.95
2022-10-30T22:24:30.349Z,9.13
2022-10-30T22:26:56.879Z,9.27
2022-10-30T22:29:23.352Z,9.32
2022-10-30T22:31:49.929Z,9.55
2022-10-30T22:34:16.471Z,8.95
2022-10-30T22:36:43.069Z,9.02
2022-10-30T22:39:14.408Z,9.02
2022-10-30T22:41:41.347Z,8.93
2022-10-30T22:44:10.549Z,9.07
2022-10-30T22:46:37.402Z,9.32
2022-10-30T22:49:03.962Z,9.60
2022-10-30T22:51:31.718Z,8.75
2022-10-30T22:53:59.270Z,9.13
2022-10-30T22:56:26.707Z,9.60
2022-10-30T22:58:53.689Z,8.75
2022-10-30T23:01:25.953Z,8.93
2022-10-30T23:03:54.510Z,8.93
2022-10-30T23:06:21.100Z,9.13
2022-10-30T23:08:47.907Z,8.15
2022-10-30T23:11:14.548Z,8.60
2022-10-30T23:13:41.420Z,9.15
2022-10-30T23:16:09.424Z,8.57
2022-10-30T23:18:35.954Z,7.88
2022-10-30T23:21:06.241Z,8.25
2022-10-30T23:23:39.815Z,8.05
2022-10-30T23:26:10.531Z,8.60
2022-10-30T23:28:37.143Z,8.20
2022-10-30T23:31:10.541Z,8.00
2022-10-30T23:33:37.239Z,8.85
2022-10-30T23:36:04.068Z,8.32
2022-10-30T23:38:30.937Z,9.20
2022-10-30T23:40:57.462Z,8.07
2022-10-30T23:43:24.164Z,8.65
2022-10-30T23:45:51.249Z,9.20
2022-10-30T23:48:17.760Z,8.30
2022-10-30T23:50:44.347Z,9.13
2022-10-30T23:53:10.843Z,8.98
2022-10-30T23:55:37.407Z,9.20
2022-10-30T23:58:04.171Z,8.32
